Time;durP1;ratioP1;P1;durP2;ratioP2;P2;SDS_P1;SDS_P2;PMS_P1;PMS_P2;Temp;Humidity;BMP_temperature;BMP_pressure;BME280_temperature;BME280_humidity;BME280_pressure;Samples;Min_cycle;Max_cycle;Signal;HPM_P1;HPM_P2
2022/11/29 00:00:31;;;;;;;110.80;25.73;;;9.30;99.90;;;;;;5064056;28;20237;-82
2022/11/29 00:02:57;;;;;;;102.65;25.30;;;9.30;99.90;;;;;;5067031;28;20178;-77
2022/11/29 00:05:23;;;;;;;112.25;25.65;;;9.30;99.90;;;;;;5060226;28;20205;-77
2022/11/29 00:07:48;;;;;;;99.93;26.08;;;9.30;99.90;;;;;;5073535;28;20222;-77
2022/11/29 00:10:14;;;;;;;85.65;23.88;;;9.30;99.90;;;;;;5072536;28;20202;-79
2022/11/29 00:12:40;;;;;;;82.28;24.00;;;9.30;99.90;;;;;;5050953;28;20191;-76
2022/11/29 00:15:06;;;;;;;94.35;25.15;;;9.20;99.90;;;;;;5057795;28;20228;-77
2022/11/29 00:17:32;;;;;;;84.72;24.45;;;9.20;99.90;;;;;;5057892;28;20187;-83
2022/11/29 00:19:57;;;;;;;89.80;24.75;;;9.20;99.90;;;;;;5057165;28;20215;-76
2022/11/29 00:22:24;;;;;;;89.68;24.02;;;9.20;99.90;;;;;;5057422;28;20217;-76
2022/11/29 00:24:52;;;;;;;80.55;24.00;;;9.20;99.90;;;;;;5056869;28;21454;-77
2022/11/29 00:27:18;;;;;;;86.85;23.70;;;9.20;99.90;;;;;;5057189;28;20666;-76
2022/11/29 00:29:44;;;;;;;100.72;23.77;;;9.20;99.90;;;;;;5062481;28;20183;-79
2022/11/29 00:32:09;;;;;;;91.90;24.33;;;9.20;99.90;;;;;;5050444;28;20203;-81
2022/11/29 00:34:36;;;;;;;78.40;22.63;;;9.20;99.90;;;;;;5057229;28;20259;-77
2022/11/29 00:37:01;;;;;;;81.95;23.83;;;9.20;99.90;;;;;;5053051;28;20724;-76
2022/11/29 00:39:27;;;;;;;73.85;22.20;;;9.20;99.90;;;;;;5054298;28;20310;-76
2022/11/29 00:41:53;;;;;;;66.75;21.35;;;9.10;99.90;;;;;;5057370;28;20215;-83
2022/11/29 00:44:19;;;;;;;65.13;19.90;;;9.20;99.90;;;;;;5057740;28;20183;-76
2022/11/29 00:46:44;;;;;;;74.55;21.08;;;9.10;99.90;;;;;;5073355;28;21715;-76
2022/11/29 00:49:10;;;;;;;69.90;21.40;;;9.10;99.90;;;;;;5056634;28;20203;-78
2022/11/29 00:51:36;;;;;;;72.28;22.33;;;9.10;99.90;;;;;;5055250;28;20229;-77
2022/11/29 00:54:02;;;;;;;69.88;21.95;;;9.10;99.90;;;;;;5058787;28;20221;-77
2022/11/29 00:56:27;;;;;;;59.28;20.20;;;9.00;99.90;;;;;;5054999;28;20202;-80
2022/11/29 00:58:53;;;;;;;63.00;21.23;;;9.00;99.90;;;;;;5054242;28;20182;-84
2022/11/29 01:01:19;;;;;;;74.35;21.73;;;9.00;99.90;;;;;;5058800;28;21668;-78
2022/11/29 01:03:45;;;;;;;75.63;21.25;;;9.00;99.90;;;;;;5055495;28;20183;-78
2022/11/29 01:06:13;;;;;;;65.05;20.63;;;9.00;99.90;;;;;;5054687;28;21411;-78
2022/11/29 01:08:39;;;;;;;78.72;21.15;;;9.00;99.90;;;;;;5059886;28;20237;-77
2022/11/29 01:11:16;;;;;;;89.38;21.45;;;9.00;99.90;;;;;;5034459;28;21973;-78
2022/11/29 01:13:42;;;;;;;74.40;20.70;;;9.00;99.90;;;;;;5055742;28;20182;-83
2022/11/29 01:16:09;;;;;;;78.05;20.80;;;8.90;99.90;;;;;;5056484;28;20236;-84
2022/11/29 01:18:36;;;;;;;71.40;20.83;;;8.90;99.90;;;;;;5053973;28;20269;-81
2022/11/29 01:21:17;;;;;;;66.93;20.63;;;9.00;99.90;;;;;;5056605;28;20214;-83
2022/11/29 01:23:44;;;;;;;83.15;21.65;;;8.90;99.90;;;;;;5055921;28;20181;-84
2022/11/29 01:26:13;;;;;;;86.72;21.20;;;8.90;99.90;;;;;;5054791;28;20198;-78
2022/11/29 01:28:40;;;;;;;94.97;21.23;;;8.90;99.90;;;;;;5055424;28;21878;-82
2022/11/29 01:31:14;;;;;;;75.22;21.23;;;8.90;99.90;;;;;;5057013;28;20209;-78
2022/11/29 01:33:40;;;;;;;84.15;22.25;;;8.90;99.90;;;;;;5059143;28;20180;-77
2022/11/29 01:36:08;;;;;;;113.15;22.45;;;8.80;99.90;;;;;;5056404;28;20638;-84
2022/11/29 01:38:35;;;;;;;79.30;22.77;;;8.80;99.90;;;;;;5054079;28;20179;-79
2022/11/29 01:41:06;;;;;;;83.32;23.17;;;8.80;99.90;;;;;;5055234;28;20743;-81
2022/11/29 01:43:32;;;;;;;94.88;23.60;;;8.80;99.90;;;;;;5058242;28;20163;-79
2022/11/29 01:45:58;;;;;;;91.53;23.98;;;8.80;99.90;;;;;;5054304;28;20182;-77
2022/11/29 01:48:31;;;;;;;150.15;25.90;;;8.80;99.90;;;;;;5056548;28;20181;-78
2022/11/29 01:50:59;;;;;;;86.25;24.27;;;8.80;99.90;;;;;;5055621;28;20269;-80
2022/11/29 01:53:26;;;;;;;71.65;23.48;;;8.90;99.90;;;;;;5053143;28;20186;-83
2022/11/29 01:55:59;;;;;;;89.40;24.70;;;8.90;99.90;;;;;;5054690;28;20711;-84
2022/11/29 01:58:25;;;;;;;85.50;24.02;;;8.90;99.90;;;;;;5054763;28;20183;-83
2022/11/29 02:00:51;;;;;;;75.45;24.58;;;8.90;99.90;;;;;;5053457;28;20312;-81
2022/11/29 02:03:18;;;;;;;86.32;25.65;;;8.90;99.90;;;;;;5056874;28;20697;-78
2022/11/29 02:05:49;;;;;;;94.32;26.10;;;8.90;99.90;;;;;;5055278;28;20214;-82
2022/11/29 02:08:28;;;;;;;100.78;26.70;;;8.90;99.90;;;;;;5054674;28;20222;-81
2022/11/29 02:10:57;;;;;;;87.10;25.58;;;8.90;99.90;;;;;;5055467;28;20194;-79
2022/11/29 02:13:35;;;;;;;92.18;24.52;;;8.90;99.90;;;;;;5054855;28;20285;-81
2022/11/29 02:16:25;;;;;;;81.53;24.77;;;8.90;99.90;;;;;;5055721;28;20178;-83
2022/11/29 02:19:06;;;;;;;78.85;24.60;;;8.90;99.90;;;;;;5057213;28;20291;-76
2022/11/29 02:22:07;;;;;;;78.60;24.10;;;8.90;99.90;;;;;;5057326;28;20264;-76
2022/11/29 02:24:44;;;;;;;85.55;25.08;;;8.90;99.90;;;;;;5035301;28;20201;-76
2022/11/29 02:27:47;;;;;;;85.05;25.48;;;8.90;99.90;;;;;;5054200;28;20277;-78
2022/11/29 02:30:22;;;;;;;78.35;25.88;;;8.90;99.90;;;;;;5057815;28;20190;-77
2022/11/29 02:32:58;;;;;;;79.35;25.58;;;8.90;99.90;;;;;;5053996;28;20181;-76
2022/11/29 02:35:37;;;;;;;78.45;25.80;;;8.90;99.90;;;;;;5071476;28;20178;-78
2022/11/29 02:38:33;;;;;;;80.55;26.67;;;8.90;99.90;;;;;;5056708;28;20263;-80
2022/11/29 02:41:34;;;;;;;78.43;26.10;;;8.90;99.90;;;;;;5072885;28;20211;-76
2022/11/29 02:44:12;;;;;;;84.43;27.02;;;8.90;99.90;;;;;;4994795;28;20198;-76
2022/11/29 02:47:08;;;;;;;78.68;26.58;;;8.90;99.90;;;;;;5045142;28;20226;-76
2022/11/29 02:49:48;;;;;;;87.68;27.08;;;8.90;99.90;;;;;;5019551;28;20223;-75
2022/11/29 02:52:46;;;;;;;75.22;26.40;;;8.90;99.90;;;;;;5054200;28;20233;-77
2022/11/29 02:55:20;;;;;;;80.03;27.30;;;8.90;99.90;;;;;;5054046;28;20780;-75
2022/11/29 02:58:07;;;;;;;80.95;26.52;;;8.90;99.90;;;;;;5055930;28;20925;-80
2022/11/29 03:00:37;;;;;;;74.63;25.40;;;8.90;99.90;;;;;;5056824;28;21185;-78
2022/11/29 03:03:25;;;;;;;74.00;26.67;;;8.90;99.90;;;;;;5056267;28;21027;-75
2022/11/29 03:06:32;;;;;;;67.63;26.10;;;8.90;99.90;;;;;;5053099;28;20254;-78
2022/11/29 03:09:11;;;;;;;77.40;27.52;;;8.90;99.90;;;;;;5054196;28;20632;-76
2022/11/29 03:11:46;;;;;;;72.13;26.40;;;8.80;99.90;;;;;;5059017;28;20182;-75
2022/11/29 03:14:24;;;;;;;79.50;26.73;;;8.90;99.90;;;;;;5052031;28;20182;-75
2022/11/29 03:17:27;;;;;;;74.85;26.50;;;8.90;99.90;;;;;;5062446;28;20224;-77
2022/11/29 03:20:11;;;;;;;70.90;25.23;;;8.90;99.90;;;;;;5056304;28;20217;-78
2022/11/29 03:22:47;;;;;;;72.88;26.15;;;8.90;99.90;;;;;;5059017;28;20216;-79
2022/11/29 03:25:23;;;;;;;76.70;27.63;;;8.90;99.90;;;;;;5075530;28;20218;-82
2022/11/29 03:28:01;;;;;;;75.78;26.60;;;8.90;99.90;;;;;;5061827;28;20562;-76
2022/11/29 03:30:30;;;;;;;74.60;27.52;;;8.90;99.90;;;;;;5061198;28;20225;-75
2022/11/29 03:33:15;;;;;;;73.32;26.98;;;8.90;99.90;;;;;;5055923;28;20179;-75
2022/11/29 03:36:00;;;;;;;69.65;26.05;;;8.90;99.90;;;;;;5058999;28;20688;-78
2022/11/29 03:38:38;;;;;;;65.20;25.73;;;8.90;99.90;;;;;;5055131;28;20198;-80
2022/11/29 03:41:36;;;;;;;73.38;25.95;;;8.90;99.90;;;;;;5057272;28;20210;-81
2022/11/29 03:44:24;;;;;;;70.18;26.10;;;8.90;99.90;;;;;;5076794;28;20564;-80
2022/11/29 03:47:05;;;;;;;74.10;27.17;;;8.80;99.90;;;;;;5057543;28;20190;-80
2022/11/29 03:49:42;;;;;;;55.60;25.75;;;8.80;99.90;;;;;;5057261;28;20282;-82
2022/11/29 03:52:30;;;;;;;63.97;24.50;;;8.80;99.90;;;;;;5057099;28;20228;-77
2022/11/29 03:55:08;;;;;;;60.85;24.73;;;8.80;99.90;;;;;;5056422;28;20183;-78
2022/11/29 03:57:53;;;;;;;56.97;24.65;;;8.80;99.90;;;;;;5058363;28;20181;-79
2022/11/29 04:00:20;;;;;;;66.72;24.05;;;8.80;99.90;;;;;;5057160;28;20225;-83
2022/11/29 04:03:01;;;;;;;58.88;25.15;;;8.70;99.90;;;;;;5059681;28;20182;-77
2022/11/29 04:05:51;;;;;;;54.00;24.15;;;8.70;99.90;;;;;;5057104;28;20186;-80
2022/11/29 04:08:31;;;;;;;58.05;24.70;;;8.70;99.90;;;;;;5056312;28;20222;-79
2022/11/29 04:11:53;;;;;;;55.83;24.45;;;8.70;99.90;;;;;;5056268;28;20393;-76
2022/11/29 04:14:56;;;;;;;53.70;23.95;;;8.70;99.90;;;;;;5036333;28;20190;-81
2022/11/29 04:17:42;;;;;;;54.53;24.48;;;8.60;99.90;;;;;;5055359;28;20182;-77
2022/11/29 04:20:42;;;;;;;57.72;24.33;;;8.60;99.90;;;;;;5057502;28;20217;-81
2022/11/29 04:23:44;;;;;;;53.42;23.75;;;8.60;99.90;;;;;;5055418;28;20398;-78
2022/11/29 04:26:34;;;;;;;59.50;25.30;;;8.60;99.90;;;;;;5052416;28;20178;-77
2022/11/29 04:29:00;;;;;;;61.72;24.92;;;8.60;99.90;;;;;;5072673;28;20209;-77
2022/11/29 04:32:01;;;;;;;61.20;25.50;;;8.60;99.90;;;;;;5058096;28;20702;-78
2022/11/29 04:34:55;;;;;;;49.20;23.95;;;8.60;99.90;;;;;;5046946;28;20571;-80
2022/11/29 04:37:29;;;;;;;55.58;24.58;;;8.50;99.90;;;;;;5057666;28;20258;-80
2022/11/29 04:40:41;;;;;;;50.10;23.77;;;8.50;99.90;;;;;;5055530;28;20220;-77
2022/11/29 04:43:32;;;;;;;58.10;23.30;;;8.50;99.90;;;;;;5015511;28;20187;-78
2022/11/29 04:46:23;;;;;;;50.08;22.73;;;8.50;99.90;;;;;;5014885;28;20291;-84
2022/11/29 04:49:16;;;;;;;48.72;22.75;;;8.50;99.90;;;;;;5045682;28;20278;-83
2022/11/29 04:52:13;;;;;;;49.15;22.02;;;8.50;99.90;;;;;;5059071;28;20179;-75
2022/11/29 04:54:50;;;;;;;47.05;22.13;;;8.50;99.90;;;;;;5054500;28;20237;-77
2022/11/29 04:57:34;;;;;;;43.80;22.10;;;8.50;99.90;;;;;;5057099;28;20300;-80
2022/11/29 05:00:10;;;;;;;43.28;20.55;;;8.50;99.90;;;;;;5056257;28;20690;-78
2022/11/29 05:02:59;;;;;;;44.05;21.17;;;8.50;99.90;;;;;;5055207;28;20206;-82
2022/11/29 05:05:39;;;;;;;44.28;20.92;;;8.50;99.90;;;;;;5056592;28;20301;-75
2022/11/29 05:08:11;;;;;;;40.17;21.25;;;8.50;99.90;;;;;;5059152;28;20226;-75
2022/11/29 05:11:04;;;;;;;38.40;21.10;;;8.50;99.90;;;;;;5054592;28;20248;-78
2022/11/29 05:13:45;;;;;;;38.95;19.65;;;8.40;99.90;;;;;;5053922;28;20316;-76
2022/11/29 05:16:32;;;;;;;41.42;21.08;;;8.40;99.90;;;;;;5060332;28;20174;-75
2022/11/29 05:19:29;;;;;;;38.15;20.23;;;8.40;99.90;;;;;;5056074;28;20265;-79
2022/11/29 05:22:07;;;;;;;41.90;20.15;;;8.40;99.90;;;;;;5071392;28;20174;-82
2022/11/29 05:24:59;;;;;;;37.63;18.83;;;8.40;99.90;;;;;;5055241;28;21083;-77
2022/11/29 05:27:39;;;;;;;37.47;20.30;;;8.30;99.90;;;;;;5053535;28;20258;-75
2022/11/29 05:30:10;;;;;;;37.50;20.08;;;8.40;99.90;;;;;;5056950;28;20179;-76
2022/11/29 05:33:19;;;;;;;38.88;19.63;;;8.30;99.90;;;;;;5058180;28;20712;-78
2022/11/29 05:36:01;;;;;;;40.75;21.08;;;8.30;99.90;;;;;;5056862;28;20179;-81
2022/11/29 05:38:51;;;;;;;44.40;19.67;;;8.30;99.90;;;;;;5057870;28;20208;-75
2022/11/29 05:41:46;;;;;;;38.90;19.98;;;8.30;99.90;;;;;;5054371;28;20681;-83
2022/11/29 05:44:18;;;;;;;36.92;18.67;;;8.30;99.90;;;;;;5055418;28;20183;-77
2022/11/29 05:46:58;;;;;;;41.70;20.27;;;8.20;99.90;;;;;;5053628;28;20179;-77
2022/11/29 05:49:43;;;;;;;37.83;19.38;;;8.30;99.90;;;;;;5054821;28;20178;-84
2022/11/29 05:52:23;;;;;;;37.00;19.17;;;8.30;99.90;;;;;;5056083;28;20255;-78
2022/11/29 05:55:13;;;;;;;41.85;19.67;;;8.30;99.90;;;;;;5056039;28;20186;-76
2022/11/29 05:57:55;;;;;;;34.10;18.60;;;8.30;99.90;;;;;;5053666;28;20747;-80
2022/11/29 06:00:21;;;;;;;40.08;18.33;;;8.20;99.90;;;;;;5054480;28;20210;-77
2022/11/29 06:03:11;;;;;;;32.00;17.85;;;8.20;99.90;;;;;;5053771;28;20191;-80
2022/11/29 06:05:46;;;;;;;35.10;18.25;;;8.20;99.90;;;;;;5059025;28;20211;-78
2022/11/29 06:08:50;;;;;;;33.95;17.42;;;8.20;99.90;;;;;;5057773;28;20724;-83
2022/11/29 06:11:40;;;;;;;33.95;17.63;;;8.20;99.90;;;;;;5059330;28;20213;-83
2022/11/29 06:14:12;;;;;;;31.08;16.27;;;8.20;99.90;;;;;;5056627;28;20194;-75
2022/11/29 06:16:50;;;;;;;36.38;18.13;;;8.20;99.90;;;;;;5070899;28;21014;-79
2022/11/29 06:19:52;;;;;;;37.38;18.45;;;8.20;99.90;;;;;;5053015;28;20701;-81
2022/11/29 06:23:06;;;;;;;34.65;17.50;;;8.10;99.90;;;;;;5071860;28;20178;-82
2022/11/29 06:25:46;;;;;;;38.28;18.48;;;8.10;99.90;;;;;;5030793;28;20282;-81
2022/11/29 06:28:29;;;;;;;31.83;17.95;;;8.10;99.90;;;;;;5054750;28;20654;-77
2022/11/29 06:31:30;;;;;;;41.88;18.10;;;8.10;99.90;;;;;;5057008;28;20182;-75
2022/11/29 06:34:01;;;;;;;41.00;17.55;;;8.10;99.90;;;;;;5026495;28;20182;-75
2022/11/29 06:36:49;;;;;;;31.00;17.25;;;8.10;99.90;;;;;;5072675;28;20177;-78
2022/11/29 06:39:15;;;;;;;39.95;18.92;;;8.10;99.90;;;;;;5057053;28;20288;-78
2022/11/29 06:41:41;;;;;;;40.05;17.63;;;8.10;99.90;;;;;;5065851;28;20182;-76
2022/11/29 06:44:07;;;;;;;31.88;17.20;;;8.20;99.90;;;;;;5070833;28;20187;-77
2022/11/29 06:46:36;;;;;;;35.13;17.95;;;8.10;99.90;;;;;;5069329;28;20189;-77
2022/11/29 06:49:20;;;;;;;41.85;18.10;;;8.20;99.90;;;;;;5065620;28;20194;-75
2022/11/29 06:51:55;;;;;;;36.25;16.85;;;8.10;99.90;;;;;;5062297;28;20567;-77
2022/11/29 06:54:51;;;;;;;32.00;17.23;;;8.20;99.90;;;;;;5068950;28;20189;-74
2022/11/29 06:57:35;;;;;;;34.28;16.95;;;8.20;99.90;;;;;;5065893;28;20269;-75
2022/11/29 07:00:19;;;;;;;33.33;16.08;;;8.10;99.90;;;;;;5053938;28;20292;-76
2022/11/29 07:03:06;;;;;;;40.53;17.08;;;8.20;99.90;;;;;;5054779;28;20193;-75
2022/11/29 07:05:34;;;;;;;38.25;17.45;;;8.10;99.90;;;;;;5073374;28;20163;-78
2022/11/29 07:08:03;;;;;;;39.20;17.95;;;8.10;99.90;;;;;;5087284;28;20572;-76
2022/11/29 07:10:32;;;;;;;31.42;16.95;;;8.10;99.90;;;;;;5072360;28;20235;-76
2022/11/29 07:12:58;;;;;;;37.75;16.88;;;8.10;99.90;;;;;;5065216;28;20205;-76
2022/11/29 07:15:24;;;;;;;30.02;16.70;;;8.10;99.90;;;;;;5057032;28;21727;-77
2022/11/29 07:18:20;;;;;;;40.45;16.67;;;8.20;99.90;;;;;;5068901;28;20183;-76
2022/11/29 07:21:40;;;;;;;33.08;17.08;;;8.20;99.90;;;;;;5071456;28;20206;-76
2022/11/29 07:24:32;;;;;;;37.00;15.85;;;8.20;99.90;;;;;;5015251;28;20271;-78
2022/11/29 07:27:17;;;;;;;39.78;17.05;;;8.20;99.90;;;;;;5054975;28;20942;-77
2022/11/29 07:30:04;;;;;;;33.88;16.42;;;8.20;99.90;;;;;;5057146;28;20182;-75
2022/11/29 07:32:57;;;;;;;35.13;16.73;;;8.20;99.90;;;;;;5068388;28;20190;-75
2022/11/29 07:35:43;;;;;;;32.30;16.10;;;8.20;99.90;;;;;;5052661;28;20182;-75
2022/11/29 07:38:17;;;;;;;28.55;15.45;;;8.20;99.90;;;;;;5053167;28;20638;-74
2022/11/29 07:41:17;;;;;;;33.10;15.80;;;8.20;99.90;;;;;;5065511;28;20217;-76
2022/11/29 07:44:00;;;;;;;34.80;15.88;;;8.20;99.90;;;;;;5065814;28;20261;-76
2022/11/29 07:46:27;;;;;;;24.92;15.10;;;8.20;99.90;;;;;;5070635;28;20202;-76
2022/11/29 07:48:53;;;;;;;36.67;16.17;;;8.20;99.90;;;;;;5057376;28;20194;-80
2022/11/29 07:51:19;;;;;;;32.03;16.30;;;8.20;99.90;;;;;;5064403;28;20194;-76
2022/11/29 07:53:45;;;;;;;31.00;15.68;;;8.20;99.90;;;;;;5052031;28;20316;-80
2022/11/29 07:56:11;;;;;;;29.88;15.75;;;8.20;99.90;;;;;;5070290;28;20187;-75
2022/11/29 07:58:38;;;;;;;40.08;16.52;;;8.20;99.90;;;;;;5068193;28;20184;-75
2022/11/29 08:01:04;;;;;;;31.48;15.95;;;8.20;99.90;;;;;;5070027;28;20211;-76
2022/11/29 08:03:29;;;;;;;40.95;16.02;;;8.20;99.90;;;;;;5068682;28;20187;-76
2022/11/29 08:06:01;;;;;;;32.97;16.48;;;8.20;99.90;;;;;;5075348;28;20678;-75
2022/11/29 08:08:27;;;;;;;30.13;14.90;;;8.20;99.90;;;;;;5067729;28;20245;-76
2022/11/29 08:10:52;;;;;;;27.00;15.52;;;8.20;99.90;;;;;;5074994;28;20178;-76
2022/11/29 08:13:19;;;;;;;29.35;15.25;;;8.10;99.90;;;;;;5064891;28;22714;-77
2022/11/29 08:15:46;;;;;;;29.20;15.45;;;8.20;99.90;;;;;;5060057;28;20270;-77
2022/11/29 08:18:13;;;;;;;31.15;15.60;;;8.20;99.90;;;;;;5074099;28;20182;-76
2022/11/29 08:20:45;;;;;;;29.27;15.70;;;8.20;99.90;;;;;;5074761;28;20214;-76
2022/11/29 08:23:12;;;;;;;32.42;15.75;;;8.20;99.90;;;;;;5072445;28;20190;-76
2022/11/29 08:25:38;;;;;;;34.65;15.43;;;8.20;99.90;;;;;;5074170;28;20175;-77
2022/11/29 08:28:04;;;;;;;27.27;15.07;;;8.30;99.90;;;;;;5070831;28;20182;-76
2022/11/29 08:30:30;;;;;;;30.85;15.70;;;8.20;99.90;;;;;;5072586;28;20331;-76
2022/11/29 08:32:56;;;;;;;33.38;15.48;;;8.20;99.90;;;;;;5071372;28;20209;-77
2022/11/29 08:35:22;;;;;;;34.40;16.08;;;8.30;99.90;;;;;;5059291;28;20186;-77
2022/11/29 08:37:49;;;;;;;34.60;15.38;;;8.30;99.90;;;;;;5081764;28;20560;-78
2022/11/29 08:40:16;;;;;;;33.42;14.90;;;8.30;99.90;;;;;;5074474;28;20206;-75
2022/11/29 08:42:42;;;;;;;30.85;15.82;;;8.30;99.90;;;;;;5072779;28;20183;-76
2022/11/29 08:45:08;;;;;;;34.85;16.55;;;8.40;99.90;;;;;;5056760;28;20187;-78
2022/11/29 08:47:35;;;;;;;34.17;15.60;;;8.40;99.90;;;;;;5056772;28;20254;-78
2022/11/29 08:50:13;;;;;;;32.38;15.68;;;8.40;99.90;;;;;;5060700;28;20183;-76
2022/11/29 08:55:39;;;;;;;29.77;15.77;;;8.50;99.90;;;;;;5074687;28;20541;-76
2022/11/29 08:58:07;;;;;;;32.15;15.70;;;8.50;99.90;;;;;;5071418;28;20179;-76
2022/11/29 09:00:33;;;;;;;32.08;16.13;;;8.50;99.90;;;;;;5068482;28;20284;-80
2022/11/29 09:05:46;;;;;;;35.85;16.05;;;8.60;99.90;;;;;;5086281;28;20188;-75
2022/11/29 09:08:12;;;;;;;35.08;16.25;;;8.60;99.90;;;;;;5081881;28;20268;-74
2022/11/29 09:10:41;;;;;;;29.83;15.13;;;8.60;99.90;;;;;;5069704;28;20197;-79
2022/11/29 09:13:09;;;;;;;30.15;15.88;;;8.60;99.90;;;;;;5055039;28;20657;-73
2022/11/29 09:15:40;;;;;;;29.60;15.30;;;8.60;99.90;;;;;;5072740;28;20222;-77
2022/11/29 09:18:06;;;;;;;30.13;15.55;;;8.60;99.90;;;;;;5072741;28;20533;-76
2022/11/29 09:20:33;;;;;;;27.33;14.52;;;8.60;99.90;;;;;;5089281;28;20217;-79
2022/11/29 09:22:59;;;;;;;39.63;14.85;;;8.70;99.90;;;;;;5058976;28;20240;-75
2022/11/29 09:25:25;;;;;;;34.03;14.88;;;8.70;99.90;;;;;;5073933;28;20253;-78
2022/11/29 09:27:51;;;;;;;35.60;14.10;;;8.70;99.90;;;;;;5070495;28;20186;-75
2022/11/29 09:30:17;;;;;;;33.15;13.55;;;8.70;99.90;;;;;;5072534;28;20197;-76
2022/11/29 09:32:44;;;;;;;27.95;14.27;;;8.80;99.90;;;;;;5062810;28;20182;-79
2022/11/29 09:35:10;;;;;;;32.83;12.68;;;8.80;99.90;;;;;;5068612;28;20665;-76
2022/11/29 09:37:40;;;;;;;33.35;13.25;;;8.80;99.90;;;;;;5072006;28;20190;-75
2022/11/29 09:40:06;;;;;;;38.95;12.80;;;8.90;99.90;;;;;;5073223;28;20205;-75
2022/11/29 09:42:44;;;;;;;29.75;11.88;;;8.90;99.90;;;;;;5069459;28;20175;-75
2022/11/29 09:45:28;;;;;;;30.90;13.45;;;8.90;99.90;;;;;;5054484;28;20171;-77
2022/11/29 09:48:03;;;;;;;26.25;12.88;;;9.00;99.90;;;;;;5062578;28;20178;-74
2022/11/29 09:50:41;;;;;;;35.67;13.00;;;9.00;99.90;;;;;;5053928;28;20174;-74
2022/11/29 09:53:29;;;;;;;31.90;12.85;;;9.00;99.90;;;;;;5057590;28;20182;-77
2022/11/29 09:56:17;;;;;;;35.20;12.10;;;9.10;99.90;;;;;;5065792;28;20182;-77
2022/11/29 09:58:58;;;;;;;37.47;12.93;;;9.10;99.90;;;;;;5069686;28;20193;-76
2022/11/29 10:01:32;;;;;;;36.50;12.27;;;9.10;99.90;;;;;;5072228;28;20251;-75
2022/11/29 10:04:07;;;;;;;35.90;12.55;;;9.20;99.90;;;;;;5063799;28;20633;-81
2022/11/29 10:06:39;;;;;;;30.45;12.13;;;9.20;99.90;;;;;;5066193;28;20174;-75
2022/11/29 10:09:15;;;;;;;31.70;12.52;;;9.20;99.90;;;;;;5071567;28;20288;-77
2022/11/29 10:12:03;;;;;;;29.52;12.48;;;9.30;99.90;;;;;;5072966;28;20171;-76
2022/11/29 10:14:41;;;;;;;29.85;13.65;;;9.30;99.90;;;;;;5066045;28;20265;-76
2022/11/29 10:17:37;;;;;;;35.40;12.98;;;9.30;99.90;;;;;;5064248;28;20653;-76
2022/11/29 10:20:15;;;;;;;31.10;12.57;;;9.40;99.90;;;;;;5071872;28;20578;-76
2022/11/29 10:22:48;;;;;;;30.75;12.20;;;9.40;99.90;;;;;;5071449;28;20265;-76
2022/11/29 10:25:41;;;;;;;32.42;12.65;;;9.50;99.90;;;;;;5066268;28;20583;-82
2022/11/29 10:28:20;;;;;;;31.58;13.15;;;9.50;99.90;;;;;;5055331;28;20872;-79
2022/11/29 10:30:46;;;;;;;33.40;13.38;;;9.60;99.90;;;;;;5065513;28;20185;-76
2022/11/29 10:33:20;;;;;;;34.25;16.17;;;9.60;99.90;;;;;;5072236;28;20641;-77
2022/11/29 10:35:48;;;;;;;26.98;13.70;;;9.60;99.90;;;;;;5065103;28;20194;-76
2022/11/29 10:38:14;;;;;;;25.85;13.70;;;9.70;99.90;;;;;;5064322;28;20236;-76
2022/11/29 10:40:46;;;;;;;30.30;14.25;;;9.70;99.90;;;;;;5072127;28;20206;-76
2022/11/29 10:43:12;;;;;;;28.42;15.05;;;9.80;99.90;;;;;;5067553;28;20179;-80
2022/11/29 10:45:48;;;;;;;32.90;16.13;;;9.80;99.90;;;;;;5068366;28;20174;-79
2022/11/29 10:48:17;;;;;;;39.30;14.82;;;9.90;99.90;;;;;;5057213;28;21234;-76
2022/11/29 10:50:45;;;;;;;37.00;15.75;;;9.90;99.90;;;;;;5074898;28;20190;-75
2022/11/29 10:53:14;;;;;;;34.95;16.95;;;9.90;99.90;;;;;;5072236;28;20279;-77
2022/11/29 10:55:57;;;;;;;30.88;15.90;;;9.90;99.90;;;;;;5070729;28;20178;-76
2022/11/29 10:58:25;;;;;;;31.67;17.00;;;9.90;99.90;;;;;;5059057;28;20182;-76
2022/11/29 11:01:06;;;;;;;28.70;16.90;;;10.00;99.90;;;;;;5072538;28;20311;-76
2022/11/29 11:03:40;;;;;;;36.58;17.23;;;10.00;99.90;;;;;;5059670;28;20588;-76
2022/11/29 11:06:23;;;;;;;31.35;17.30;;;10.00;99.90;;;;;;5059045;28;20299;-78
2022/11/29 11:09:10;;;;;;;33.97;18.05;;;10.00;99.90;;;;;;5057045;28;20728;-79
2022/11/29 11:11:37;;;;;;;35.17;18.15;;;10.10;99.90;;;;;;5071341;28;20665;-76
2022/11/29 11:14:20;;;;;;;39.15;18.73;;;10.10;99.90;;;;;;5053815;28;20645;-76
2022/11/29 11:16:46;;;;;;;27.67;17.70;;;10.10;99.90;;;;;;5052350;28;20163;-76
2022/11/29 11:19:32;;;;;;;31.75;17.67;;;10.10;99.90;;;;;;5071697;28;20524;-76
2022/11/29 11:22:02;;;;;;;26.98;16.90;;;10.10;99.90;;;;;;5062025;28;20198;-76
2022/11/29 11:24:32;;;;;;;31.42;16.60;;;10.10;99.90;;;;;;5072311;28;20187;-76
2022/11/29 11:26:58;;;;;;;27.40;17.02;;;10.10;99.90;;;;;;5071264;28;20258;-76
2022/11/29 11:29:31;;;;;;;26.92;16.75;;;10.10;99.90;;;;;;5067725;28;20179;-82
2022/11/29 11:31:58;;;;;;;29.60;16.25;;;10.00;99.90;;;;;;5055851;28;20187;-76
2022/11/29 11:34:32;;;;;;;25.95;16.52;;;10.00;99.90;;;;;;5073704;28;20179;-76
2022/11/29 11:37:13;;;;;;;33.85;17.40;;;10.00;99.90;;;;;;5075125;28;20205;-76
2022/11/29 11:39:44;;;;;;;23.80;16.38;;;10.10;99.90;;;;;;5073137;28;20293;-76
2022/11/29 11:44:57;;;;;;;28.30;15.85;;;10.10;99.90;;;;;;5071372;28;20208;-77
2022/11/29 11:47:26;;;;;;;31.05;16.05;;;10.00;99.90;;;;;;5066542;28;20237;-76
2022/11/29 11:50:00;;;;;;;28.27;15.75;;;10.00;99.90;;;;;;5075840;28;20257;-76
2022/11/29 11:53:06;;;;;;;25.38;14.77;;;10.00;99.90;;;;;;5072805;28;20588;-76
2022/11/29 11:55:39;;;;;;;20.63;14.43;;;10.00;99.90;;;;;;5064565;28;20190;-76
2022/11/29 11:58:10;;;;;;;21.73;13.77;;;10.00;99.90;;;;;;5053381;28;20186;-76
2022/11/29 12:00:51;;;;;;;20.25;13.90;;;10.00;99.90;;;;;;5075610;28;20273;-77
2022/11/29 12:03:35;;;;;;;20.20;14.07;;;10.00;99.90;;;;;;5075447;28;20190;-76
2022/11/29 12:06:26;;;;;;;19.17;14.07;;;9.90;99.90;;;;;;5074266;28;20183;-77
2022/11/29 12:08:58;;;;;;;22.20;14.25;;;9.90;99.90;;;;;;5081874;28;20269;-76
2022/11/29 12:11:25;;;;;;;23.42;14.55;;;9.90;99.90;;;;;;5066842;28;20228;-76
2022/11/29 12:13:56;;;;;;;25.23;15.63;;;9.90;99.90;;;;;;5075247;28;20171;-76
2022/11/29 12:16:29;;;;;;;24.50;15.65;;;9.90;99.90;;;;;;5069052;28;20190;-78
2022/11/29 12:19:10;;;;;;;22.70;14.93;;;9.90;99.90;;;;;;5061839;28;20178;-76
2022/11/29 12:21:42;;;;;;;22.10;15.05;;;9.90;99.90;;;;;;5073021;28;20328;-76
2022/11/29 12:24:13;;;;;;;20.10;13.50;;;9.90;99.90;;;;;;5075410;28;20166;-76
2022/11/29 12:26:41;;;;;;;17.50;13.00;;;9.90;99.90;;;;;;5063037;28;20268;-79
2022/11/29 12:29:14;;;;;;;16.08;13.25;;;9.80;99.90;;;;;;5079560;28;20187;-76
2022/11/29 12:31:40;;;;;;;16.70;12.57;;;9.80;99.90;;;;;;5063460;28;20638;-77
2022/11/29 12:34:41;;;;;;;18.45;12.93;;;9.80;99.90;;;;;;5073769;28;20186;-76
2022/11/29 12:37:40;;;;;;;19.38;13.77;;;9.80;99.90;;;;;;5039404;28;20455;-80
2022/11/29 12:40:19;;;;;;;17.77;13.55;;;9.70;99.90;;;;;;5073718;28;20268;-75
2022/11/29 12:43:04;;;;;;;20.85;13.77;;;9.70;99.90;;;;;;5058156;28;20225;-75
2022/11/29 12:45:38;;;;;;;18.02;14.02;;;9.70;99.90;;;;;;5074918;28;20159;-75
2022/11/29 12:48:32;;;;;;;18.25;14.05;;;9.70;99.90;;;;;;5055367;28;20183;-75
2022/11/29 12:51:14;;;;;;;20.92;13.35;;;9.70;99.90;;;;;;5062977;28;20178;-75
2022/11/29 12:53:46;;;;;;;17.08;13.10;;;9.70;99.90;;;;;;5074698;28;20167;-75
2022/11/29 12:56:25;;;;;;;19.55;14.45;;;9.60;99.90;;;;;;5089168;28;20532;-75
2022/11/29 12:59:10;;;;;;;18.83;14.25;;;9.60;99.90;;;;;;5059903;28;20704;-75
2022/11/29 13:01:54;;;;;;;20.55;13.88;;;9.60;99.90;;;;;;5056346;28;20871;-78
2022/11/29 13:04:28;;;;;;;19.38;14.27;;;9.50;99.90;;;;;;5059436;28;20254;-75
2022/11/29 13:07:13;;;;;;;19.25;14.65;;;9.50;99.90;;;;;;5083576;28;20218;-74
2022/11/29 13:09:56;;;;;;;18.45;13.98;;;9.50;99.90;;;;;;5032738;28;20192;-75
2022/11/29 13:12:31;;;;;;;18.40;14.52;;;9.40;99.90;;;;;;5026742;28;20707;-74
2022/11/29 13:15:15;;;;;;;20.75;14.52;;;9.40;99.90;;;;;;5017887;28;20190;-75
2022/11/29 13:17:56;;;;;;;20.80;14.40;;;9.40;99.90;;;;;;5036004;28;20194;-75
2022/11/29 13:21:00;;;;;;;21.00;14.80;;;9.40;99.90;;;;;;5015375;28;20203;-79
2022/11/29 13:23:34;;;;;;;19.52;14.13;;;9.30;99.90;;;;;;5020208;28;20187;-75
2022/11/29 13:26:05;;;;;;;19.65;14.23;;;9.30;99.90;;;;;;5030265;28;20194;-75
2022/11/29 13:28:34;;;;;;;17.23;13.68;;;9.30;99.90;;;;;;5033115;28;20176;-75
2022/11/29 13:31:03;;;;;;;19.23;14.38;;;9.30;99.90;;;;;;5021505;28;20687;-75
2022/11/29 13:33:58;;;;;;;18.20;14.10;;;9.30;99.90;;;;;;5023101;28;20191;-75